Time;durP1;ratioP1;P1;durP2;ratioP2;P2;SDS_P1;SDS_P2;PMS_P1;PMS_P2;Temp;Humidity;BMP_temperature;BMP_pressure;BME280_temperature;BME280_humidity;BME280_pressure;Samples;Min_cycle;Max_cycle;Signal;HPM_P1;HPM_P2
2022/07/22 00:02:15;;;;;;;7.75;5.95;;;16.90;99.90;;;;;;5005908;28;20378;-77
2022/07/22 00:04:41;;;;;;;5.28;4.68;;;16.90;99.90;;;;;;5001989;28;20544;-76
2022/07/22 00:07:06;;;;;;;4.95;4.35;;;17.00;99.90;;;;;;5004349;28;20159;-77
2022/07/22 00:09:33;;;;;;;6.13;4.57;;;16.90;99.90;;;;;;4999388;28;20446;-77
2022/07/22 00:11:58;;;;;;;7.18;6.47;;;16.90;99.90;;;;;;4979542;28;20402;-77
2022/07/22 00:14:24;;;;;;;7.20;4.78;;;16.80;99.90;;;;;;4980528;28;20030;-77
2022/07/22 00:16:49;;;;;;;6.88;5.00;;;16.80;99.90;;;;;;4965517;28;20057;-77
2022/07/22 00:19:15;;;;;;;8.88;4.45;;;16.80;99.90;;;;;;4993016;28;20042;-77
2022/07/22 00:21:41;;;;;;;5.50;4.78;;;16.80;99.90;;;;;;4993502;28;20102;-76
2022/07/22 00:24:06;;;;;;;5.55;4.78;;;16.80;99.90;;;;;;4976818;28;20034;-77
2022/07/22 00:26:32;;;;;;;5.55;4.97;;;16.70;99.90;;;;;;4980942;28;20765;-76
2022/07/22 00:28:57;;;;;;;10.23;5.43;;;16.70;99.90;;;;;;4992705;28;20049;-77
2022/07/22 00:31:23;;;;;;;6.03;4.47;;;16.80;99.90;;;;;;4972130;28;20053;-77
2022/07/22 00:33:49;;;;;;;5.70;4.40;;;16.80;99.90;;;;;;4994214;28;20048;-77
2022/07/22 00:36:14;;;;;;;9.00;4.18;;;16.80;99.90;;;;;;5006870;28;20040;-76
2022/07/22 00:38:40;;;;;;;5.20;3.85;;;16.80;99.90;;;;;;4974373;28;20117;-77
2022/07/22 00:41:05;;;;;;;5.85;3.53;;;16.70;99.90;;;;;;5003460;28;20045;-76
2022/07/22 00:44:03;;;;;;;7.05;4.15;;;16.70;99.90;;;;;;4977303;28;20030;-76
2022/07/22 00:46:29;;;;;;;4.75;3.20;;;16.70;99.90;;;;;;4994452;28;20061;-77
2022/07/22 00:48:55;;;;;;;6.68;4.32;;;16.70;99.90;;;;;;4997685;28;20034;-76
2022/07/22 00:51:21;;;;;;;9.05;4.63;;;16.70;99.90;;;;;;5011776;28;20041;-77
2022/07/22 00:53:47;;;;;;;5.68;3.65;;;16.80;99.90;;;;;;5008795;28;20034;-76
2022/07/22 00:56:13;;;;;;;6.70;4.75;;;16.70;99.90;;;;;;4993797;28;20446;-76
2022/07/22 00:58:38;;;;;;;9.52;4.88;;;16.70;99.90;;;;;;4994241;28;20038;-77
2022/07/22 01:01:04;;;;;;;9.65;4.78;;;16.60;99.90;;;;;;4973963;28;20041;-77
2022/07/22 01:03:32;;;;;;;7.95;5.88;;;16.70;99.90;;;;;;4989250;28;20034;-76
2022/07/22 01:05:58;;;;;;;9.02;6.10;;;16.70;99.90;;;;;;4976316;28;20060;-77
2022/07/22 01:08:24;;;;;;;8.85;5.15;;;16.70;99.90;;;;;;4985781;28;20413;-77
2022/07/22 01:10:49;;;;;;;8.93;6.80;;;16.60;99.90;;;;;;4990463;28;20037;-77
2022/07/22 01:13:15;;;;;;;9.55;6.75;;;16.60;99.90;;;;;;5012958;28;20038;-77
2022/07/22 01:15:40;;;;;;;10.18;6.35;;;16.60;99.90;;;;;;4994332;28;20053;-77
2022/07/22 01:18:06;;;;;;;7.53;5.65;;;16.60;99.90;;;;;;4991855;28;20045;-76
2022/07/22 01:20:32;;;;;;;10.90;4.70;;;16.60;99.90;;;;;;5012852;28;20037;-77
2022/07/22 01:22:57;;;;;;;8.35;5.68;;;16.60;99.90;;;;;;5031080;28;20144;-77
2022/07/22 01:25:23;;;;;;;8.38;5.82;;;16.60;99.90;;;;;;5012291;28;20079;-76
2022/07/22 01:27:48;;;;;;;10.70;5.32;;;16.60;99.90;;;;;;5008158;28;20026;-77
2022/07/22 01:30:14;;;;;;;6.68;5.65;;;16.60;99.90;;;;;;4991908;28;20030;-76
2022/07/22 01:32:39;;;;;;;5.00;3.72;;;16.60;99.90;;;;;;4993481;28;20053;-76
2022/07/22 01:35:05;;;;;;;6.38;3.05;;;16.50;99.90;;;;;;5027875;28;20030;-76
2022/07/22 01:37:34;;;;;;;6.05;2.40;;;16.50;99.90;;;;;;5009350;28;20104;-76
2022/07/22 01:39:59;;;;;;;4.68;2.25;;;16.40;99.90;;;;;;4989775;28;20034;-77
2022/07/22 01:42:25;;;;;;;5.68;2.35;;;16.40;99.90;;;;;;5001901;28;20432;-76
2022/07/22 01:44:51;;;;;;;7.45;2.47;;;16.40;99.90;;;;;;4987662;28;20061;-76
2022/07/22 01:47:16;;;;;;;4.55;2.38;;;16.40;99.90;;;;;;5009983;28;20049;-76
2022/07/22 01:49:42;;;;;;;4.75;1.88;;;16.30;99.90;;;;;;5008660;28;20037;-76
2022/07/22 01:52:08;;;;;;;3.47;2.30;;;16.40;99.90;;;;;;4993449;28;20080;-76
2022/07/22 01:54:34;;;;;;;4.55;1.73;;;16.30;99.90;;;;;;4992060;28;20261;-76
2022/07/22 01:57:00;;;;;;;5.50;2.40;;;16.30;99.90;;;;;;5026310;28;20409;-77
2022/07/22 01:59:25;;;;;;;6.72;2.10;;;16.30;99.90;;;;;;5005775;28;20022;-77
2022/07/22 02:01:51;;;;;;;3.22;2.10;;;16.30;99.90;;;;;;5007075;28;20040;-77
2022/07/22 02:04:16;;;;;;;2.75;1.50;;;16.30;99.90;;;;;;5009565;28;20036;-77
2022/07/22 02:06:42;;;;;;;4.72;1.77;;;16.30;99.90;;;;;;5026878;28;20113;-77
2022/07/22 02:09:07;;;;;;;2.53;1.63;;;16.20;99.90;;;;;;5007936;28;20490;-77
2022/07/22 02:11:33;;;;;;;3.10;2.03;;;16.30;99.90;;;;;;5009339;28;20481;-77
2022/07/22 02:13:59;;;;;;;3.17;1.67;;;16.30;99.90;;;;;;5006578;28;20029;-76
2022/07/22 02:16:24;;;;;;;8.18;2.63;;;16.30;99.90;;;;;;5006736;28;20349;-77
2022/07/22 02:18:50;;;;;;;4.28;2.67;;;16.20;99.90;;;;;;5025930;28;20145;-76
2022/07/22 02:21:16;;;;;;;4.32;2.15;;;16.20;99.90;;;;;;4987936;28;20643;-76
2022/07/22 02:23:41;;;;;;;3.83;2.08;;;16.20;99.90;;;;;;5016153;28;20042;-77
2022/07/22 02:26:07;;;;;;;3.05;1.98;;;16.20;99.90;;;;;;4993313;28;20038;-76
2022/07/22 02:28:33;;;;;;;5.22;2.42;;;16.20;99.90;;;;;;5008264;28;20038;-77
2022/07/22 02:30:58;;;;;;;3.28;2.25;;;16.20;99.90;;;;;;4994414;28;22655;-77
2022/07/22 02:33:24;;;;;;;4.38;2.33;;;16.20;99.90;;;;;;4995220;28;20033;-77
2022/07/22 02:35:49;;;;;;;5.43;1.95;;;16.20;99.90;;;;;;5010109;28;20490;-76
2022/07/22 02:38:15;;;;;;;6.50;2.30;;;16.20;99.90;;;;;;5008130;28;20459;-77
2022/07/22 02:40:40;;;;;;;4.53;2.15;;;16.20;99.90;;;;;;4989661;28;20035;-77
2022/07/22 02:43:06;;;;;;;4.03;2.33;;;16.20;99.90;;;;;;5028338;28;20046;-77
2022/07/22 02:45:32;;;;;;;4.38;2.38;;;16.10;99.90;;;;;;5008623;28;20410;-76
2022/07/22 02:47:58;;;;;;;7.60;3.20;;;16.10;99.90;;;;;;5005099;28;20120;-77
2022/07/22 02:50:24;;;;;;;3.97;2.42;;;16.20;99.90;;;;;;5006213;28;20093;-76
2022/07/22 02:52:50;;;;;;;6.57;3.42;;;16.20;99.90;;;;;;5006923;28;20026;-76
2022/07/22 02:55:16;;;;;;;8.20;3.63;;;16.10;99.90;;;;;;5007882;28;20497;-76
2022/07/22 02:57:42;;;;;;;8.48;3.75;;;16.10;99.90;;;;;;5009355;28;20120;-76
2022/07/22 03:00:10;;;;;;;9.20;5.50;;;16.10;99.90;;;;;;5010863;28;20025;-77
2022/07/22 03:02:35;;;;;;;9.13;5.45;;;16.10;99.90;;;;;;5024120;28;20447;-77
2022/07/22 03:05:01;;;;;;;12.65;5.43;;;16.10;99.90;;;;;;4989539;28;20060;-77
2022/07/22 03:07:27;;;;;;;9.65;5.55;;;16.20;99.90;;;;;;5009902;28;20072;-76
2022/07/22 03:09:52;;;;;;;13.60;8.07;;;16.20;99.90;;;;;;5004632;28;20025;-77
2022/07/22 03:12:18;;;;;;;15.73;8.00;;;16.10;99.90;;;;;;5004401;28;20030;-76
2022/07/22 03:14:43;;;;;;;10.23;6.07;;;16.10;99.90;;;;;;5011223;28;20108;-76
2022/07/22 03:17:09;;;;;;;13.20;7.65;;;16.10;99.90;;;;;;5026892;28;20092;-77
2022/07/22 03:19:34;;;;;;;10.77;7.18;;;16.00;99.90;;;;;;5008639;28;20482;-77
2022/07/22 03:22:00;;;;;;;12.15;7.10;;;16.10;99.90;;;;;;5021198;28;20066;-76
2022/07/22 03:24:25;;;;;;;13.15;7.72;;;16.10;99.90;;;;;;5007180;28;20454;-76
2022/07/22 03:26:51;;;;;;;11.10;7.30;;;16.10;99.90;;;;;;5028625;28;20493;-77
2022/07/22 03:29:16;;;;;;;7.95;5.35;;;16.10;99.90;;;;;;5005978;28;20641;-77
2022/07/22 03:31:42;;;;;;;7.25;4.85;;;16.10;99.90;;;;;;5024146;28;20387;-76
2022/07/22 03:34:08;;;;;;;12.65;7.78;;;16.10;99.90;;;;;;5026889;28;20398;-77
2022/07/22 03:36:33;;;;;;;10.48;6.28;;;16.10;99.90;;;;;;4990598;28;20367;-77
2022/07/22 03:38:59;;;;;;;9.68;5.10;;;16.10;99.90;;;;;;4975394;28;20489;-76
2022/07/22 03:41:24;;;;;;;8.55;4.53;;;16.10;99.90;;;;;;5009384;28;20515;-76
2022/07/22 03:43:50;;;;;;;12.25;5.53;;;16.10;99.90;;;;;;5008718;28;20026;-76
2022/07/22 03:46:15;;;;;;;10.70;5.15;;;16.00;99.90;;;;;;5008314;28;20065;-76
2022/07/22 03:48:41;;;;;;;10.70;4.10;;;16.00;99.90;;;;;;5014170;28;20041;-77
2022/07/22 03:51:06;;;;;;;11.60;6.63;;;16.10;99.90;;;;;;5010486;28;20034;-76
2022/07/22 03:53:32;;;;;;;9.38;5.18;;;16.00;99.90;;;;;;5006575;28;20032;-76
2022/07/22 03:55:58;;;;;;;12.38;5.10;;;16.00;99.90;;;;;;4990323;28;20333;-77
2022/07/22 03:58:26;;;;;;;10.43;5.82;;;16.00;99.90;;;;;;4992942;28;20040;-77
2022/07/22 04:00:52;;;;;;;7.30;5.47;;;16.00;99.90;;;;;;5026372;28;20578;-76
2022/07/22 04:03:17;;;;;;;9.50;5.35;;;16.00;99.90;;;;;;5010969;28;20128;-76
2022/07/22 04:05:43;;;;;;;9.07;5.18;;;16.00;99.90;;;;;;5009918;28;20038;-77
2022/07/22 04:08:08;;;;;;;7.05;3.70;;;16.00;99.90;;;;;;5012050;28;20069;-76
2022/07/22 04:10:34;;;;;;;16.05;5.72;;;16.00;99.90;;;;;;5013307;28;20026;-76
2022/07/22 04:12:59;;;;;;;13.80;5.60;;;16.00;99.90;;;;;;5010945;28;20029;-77
2022/07/22 04:15:25;;;;;;;13.15;5.57;;;15.90;99.90;;;;;;5013097;28;20034;-75
2022/07/22 04:17:51;;;;;;;10.23;5.50;;;15.90;99.90;;;;;;5008411;28;20033;-76
2022/07/22 04:20:17;;;;;;;8.20;5.13;;;15.90;99.90;;;;;;5012544;28;20370;-76
2022/07/22 04:22:43;;;;;;;10.05;4.25;;;15.90;99.90;;;;;;5013639;28;20053;-76
2022/07/22 04:25:08;;;;;;;5.50;3.80;;;15.90;99.90;;;;;;5012521;28;20065;-76
2022/07/22 04:27:34;;;;;;;7.25;3.72;;;15.90;99.90;;;;;;4991926;28;20090;-76
2022/07/22 04:30:00;;;;;;;14.07;5.95;;;16.00;99.90;;;;;;4990404;28;20026;-76
2022/07/22 04:32:25;;;;;;;17.02;5.97;;;16.00;99.90;;;;;;5013929;28;20112;-76
2022/07/22 04:34:51;;;;;;;10.18;5.53;;;15.90;99.90;;;;;;5011209;28;20101;-76
2022/07/22 04:37:16;;;;;;;11.50;5.78;;;15.90;99.90;;;;;;5014969;28;20433;-76
2022/07/22 04:39:42;;;;;;;11.40;5.97;;;16.00;99.90;;;;;;5030824;28;20026;-76
2022/07/22 04:42:07;;;;;;;13.55;5.80;;;16.00;99.90;;;;;;4993343;28;20042;-76
2022/07/22 04:44:33;;;;;;;9.90;5.00;;;16.00;99.90;;;;;;5029600;28;20080;-76
2022/07/22 04:46:58;;;;;;;11.73;6.30;;;15.90;99.90;;;;;;5032148;28;20033;-76
2022/07/22 04:49:25;;;;;;;9.60;5.53;;;16.00;99.90;;;;;;4991220;28;20591;-76
2022/07/22 04:51:51;;;;;;;12.65;5.40;;;16.00;99.90;;;;;;5009139;28;20030;-76
2022/07/22 04:54:17;;;;;;;15.13;5.43;;;16.00;99.90;;;;;;5026123;28;20040;-76
2022/07/22 04:56:42;;;;;;;11.95;5.50;;;16.00;99.90;;;;;;4992374;28;20022;-76
2022/07/22 04:59:08;;;;;;;14.70;5.97;;;16.10;99.90;;;;;;5008856;28;20042;-75
2022/07/22 05:01:33;;;;;;;13.07;5.97;;;16.10;99.90;;;;;;4993255;28;20030;-76
2022/07/22 05:03:59;;;;;;;12.57;4.88;;;16.10;99.90;;;;;;5012848;28;20108;-76
2022/07/22 05:06:24;;;;;;;6.97;3.45;;;16.20;99.90;;;;;;5016020;28;20076;-75
2022/07/22 05:08:50;;;;;;;13.93;4.40;;;16.20;99.90;;;;;;5026783;28;20026;-76
2022/07/22 05:11:15;;;;;;;8.10;4.00;;;16.20;99.90;;;;;;5009358;28;20037;-76
2022/07/22 05:13:41;;;;;;;12.65;4.90;;;16.40;99.90;;;;;;5007375;28;20034;-76
2022/07/22 05:16:07;;;;;;;12.55;4.57;;;16.30;99.90;;;;;;5008088;28;20041;-76
2022/07/22 05:18:33;;;;;;;5.55;3.20;;;16.40;99.90;;;;;;5010475;28;20049;-76
2022/07/22 05:20:59;;;;;;;13.02;4.68;;;16.50;99.90;;;;;;5006896;28;20176;-76
2022/07/22 05:23:24;;;;;;;12.93;4.13;;;16.50;99.90;;;;;;4991921;28;20572;-76
2022/07/22 05:25:50;;;;;;;3.92;2.85;;;16.60;99.90;;;;;;4994262;28;20033;-76
2022/07/22 05:28:15;;;;;;;11.43;5.00;;;16.50;99.90;;;;;;5027023;28;20121;-76
2022/07/22 05:30:41;;;;;;;8.90;4.35;;;16.60;99.90;;;;;;4994699;28;20047;-76
2022/07/22 05:33:06;;;;;;;6.07;3.78;;;16.70;99.90;;;;;;5006422;28;20184;-76
2022/07/22 05:35:32;;;;;;;11.57;5.00;;;16.70;99.90;;;;;;5022844;28;20045;-79
2022/07/22 05:37:57;;;;;;;11.70;5.03;;;16.80;99.90;;;;;;4989123;28;20034;-76
2022/07/22 05:40:23;;;;;;;6.63;3.42;;;16.80;99.90;;;;;;4991725;28;20063;-76
2022/07/22 05:42:48;;;;;;;5.50;4.43;;;16.80;99.90;;;;;;5010112;28;20044;-76
2022/07/22 05:45:14;;;;;;;7.53;4.85;;;16.80;99.90;;;;;;4992940;28;20105;-76
2022/07/22 05:47:40;;;;;;;6.78;4.10;;;16.90;99.90;;;;;;4988802;28;20099;-76
2022/07/22 05:50:05;;;;;;;12.90;5.47;;;16.90;99.90;;;;;;5029157;28;20033;-76
2022/07/22 05:52:31;;;;;;;12.43;5.15;;;16.90;99.90;;;;;;4993718;28;20041;-76
2022/07/22 05:55:00;;;;;;;8.70;4.00;;;16.90;99.90;;;;;;5012409;28;20520;-76
2022/07/22 05:57:25;;;;;;;9.50;4.50;;;17.00;99.90;;;;;;4989027;28;20025;-76
2022/07/22 05:59:51;;;;;;;13.75;4.57;;;17.00;99.90;;;;;;5023152;28;20029;-76
2022/07/22 06:02:16;;;;;;;10.35;4.10;;;17.00;99.90;;;;;;5009320;28;20052;-76
2022/07/22 06:04:42;;;;;;;10.82;4.35;;;17.10;99.90;;;;;;5007872;28;20117;-76
2022/07/22 06:07:07;;;;;;;8.25;3.63;;;17.20;99.90;;;;;;5006199;28;20034;-76
2022/07/22 06:09:33;;;;;;;11.75;3.60;;;17.20;99.90;;;;;;5021396;28;24834;-76
2022/07/22 06:11:58;;;;;;;10.07;3.72;;;17.20;99.90;;;;;;5010132;28;20048;-76
2022/07/22 06:14:24;;;;;;;9.23;4.03;;;17.30;99.90;;;;;;5009630;28;20036;-76
2022/07/22 06:16:49;;;;;;;8.93;3.97;;;17.40;99.90;;;;;;5026684;28;20041;-76
2022/07/22 06:19:15;;;;;;;7.65;3.10;;;17.40;99.90;;;;;;5008266;28;20033;-76
2022/07/22 06:21:41;;;;;;;8.50;3.95;;;17.40;99.90;;;;;;4991124;28;20501;-76
2022/07/22 06:24:06;;;;;;;8.07;2.92;;;17.50;99.90;;;;;;4993923;28;20180;-76
2022/07/22 06:26:32;;;;;;;7.15;2.45;;;17.60;99.90;;;;;;4992650;28;20497;-77
2022/07/22 06:28:57;;;;;;;9.95;2.33;;;17.60;99.90;;;;;;5007831;28;20034;-76
2022/07/22 06:31:23;;;;;;;5.18;1.92;;;17.70;99.90;;;;;;4992059;28;20104;-76
2022/07/22 06:33:48;;;;;;;7.68;1.85;;;17.70;99.90;;;;;;5006928;28;20164;-76
2022/07/22 06:36:14;;;;;;;6.35;2.25;;;17.80;99.90;;;;;;5011833;28;20038;-76
2022/07/22 06:38:40;;;;;;;3.58;1.70;;;17.90;99.90;;;;;;4988842;28;20041;-76
2022/07/22 06:41:06;;;;;;;4.20;1.60;;;17.90;99.90;;;;;;5004797;28;20042;-76
2022/07/22 06:43:31;;;;;;;6.15;1.80;;;18.00;99.90;;;;;;4989260;28;20026;-76
2022/07/22 06:45:57;;;;;;;4.88;2.35;;;18.10;99.90;;;;;;5022309;28;20034;-76
2022/07/22 06:48:22;;;;;;;6.13;1.73;;;18.10;99.90;;;;;;5007617;28;20026;-76
2022/07/22 06:50:48;;;;;;;5.43;2.13;;;18.10;99.90;;;;;;4972973;28;20521;-76
2022/07/22 06:53:13;;;;;;;8.27;2.20;;;18.30;99.90;;;;;;5006412;28;20505;-76
2022/07/22 06:55:39;;;;;;;9.15;2.20;;;18.30;99.90;;;;;;4974463;28;20029;-76
2022/07/22 06:58:04;;;;;;;8.15;2.33;;;18.40;99.90;;;;;;5008875;28;20030;-76
2022/07/22 07:00:30;;;;;;;9.30;1.77;;;18.50;99.90;;;;;;5010153;28;20033;-76
2022/07/22 07:02:59;;;;;;;6.93;2.17;;;18.60;99.90;;;;;;5006497;28;20439;-76
2022/07/22 07:05:24;;;;;;;6.18;1.92;;;18.70;99.90;;;;;;5013982;28;20049;-75
2022/07/22 07:07:50;;;;;;;6.97;1.77;;;18.70;99.90;;;;;;4990151;28;20030;-75
2022/07/22 07:10:16;;;;;;;3.60;1.40;;;18.80;99.90;;;;;;5006866;28;20107;-78
2022/07/22 07:12:41;;;;;;;8.07;2.00;;;18.90;99.90;;;;;;4989584;28;20026;-76
2022/07/22 07:15:07;;;;;;;5.88;1.63;;;19.00;99.90;;;;;;5004255;28;20030;-76
2022/07/22 07:17:33;;;;;;;5.20;1.80;;;19.10;99.90;;;;;;5006696;28;20902;-77
2022/07/22 07:19:58;;;;;;;6.00;2.50;;;19.20;99.90;;;;;;4987459;28;20075;-76
2022/07/22 07:22:24;;;;;;;6.03;2.55;;;19.30;99.90;;;;;;5007696;28;20036;-76
2022/07/22 07:24:50;;;;;;;3.88;2.10;;;19.40;99.90;;;;;;4990819;28;20057;-76
2022/07/22 07:27:15;;;;;;;6.50;2.55;;;19.50;99.90;;;;;;5006645;28;20489;-76
2022/07/22 07:29:41;;;;;;;4.43;2.83;;;19.60;99.90;;;;;;5011464;28;20053;-76
2022/07/22 07:32:06;;;;;;;5.18;3.03;;;19.80;99.90;;;;;;4991513;28;20044;-76
2022/07/22 07:34:32;;;;;;;5.10;2.75;;;19.90;99.90;;;;;;5025693;28;20034;-76
2022/07/22 07:36:57;;;;;;;7.90;4.85;;;19.90;99.90;;;;;;4996058;28;20552;-77
2022/07/22 07:39:23;;;;;;;4.85;4.35;;;20.10;99.90;;;;;;4992374;28;20497;-76
2022/07/22 07:41:50;;;;;;;6.80;4.28;;;20.20;99.90;;;;;;5016688;28;20407;-76
2022/07/22 07:44:16;;;;;;;7.35;5.10;;;20.30;99.90;;;;;;4991002;28;20507;-76
2022/07/22 07:46:41;;;;;;;9.63;6.95;;;20.40;99.90;;;;;;4994688;28;20037;-76
2022/07/22 07:49:07;;;;;;;9.13;5.13;;;20.50;99.90;;;;;;5009903;28;20045;-76
2022/07/22 07:51:32;;;;;;;9.18;4.65;;;20.70;99.90;;;;;;5007689;28;20532;-76
2022/07/22 07:53:58;;;;;;;5.30;4.65;;;20.80;99.90;;;;;;5012134;28;20026;-76
2022/07/22 07:56:23;;;;;;;5.80;3.88;;;20.90;99.90;;;;;;5009307;28;20366;-76
2022/07/22 07:58:50;;;;;;;5.13;3.80;;;21.00;99.90;;;;;;5001787;28;20105;-76
2022/07/22 08:01:16;;;;;;;6.40;4.40;;;21.10;99.90;;;;;;4970821;28;20041;-77
2022/07/22 08:03:41;;;;;;;5.05;3.92;;;21.10;99.90;;;;;;5029465;28;20026;-77
2022/07/22 08:06:07;;;;;;;2.40;2.20;;;21.20;99.90;;;;;;5034112;28;20126;-77
2022/07/22 08:08:32;;;;;;;4.18;3.08;;;21.40;99.90;;;;;;4996843;28;20037;-77
2022/07/22 08:10:58;;;;;;;5.65;3.08;;;21.50;99.90;;;;;;4979415;28;20421;-77
2022/07/22 08:13:24;;;;;;;5.43;3.20;;;21.60;99.90;;;;;;5006852;28;20029;-77
2022/07/22 08:15:49;;;;;;;8.85;4.85;;;21.70;99.90;;;;;;5009389;28;20030;-77
2022/07/22 08:18:15;;;;;;;7.93;6.28;;;21.80;99.90;;;;;;4992923;28;20042;-77
2022/07/22 08:20:40;;;;;;;7.60;4.43;;;21.90;99.90;;;;;;4970673;28;20481;-77
2022/07/22 08:23:06;;;;;;;6.35;4.78;;;21.90;99.90;;;;;;4991245;28;20026;-76
2022/07/22 08:25:31;;;;;;;8.98;5.00;;;22.10;99.90;;;;;;5009786;28;20482;-77
2022/07/22 08:27:57;;;;;;;7.88;6.03;;;22.20;99.90;;;;;;4997409;28;20466;-77
2022/07/22 08:30:23;;;;;;;9.63;5.93;;;22.40;99.90;;;;;;5009357;28;20122;-77
2022/07/22 08:32:48;;;;;;;8.38;6.80;;;22.50;99.90;;;;;;5029017;28;20026;-77
2022/07/22 08:35:14;;;;;;;11.18;8.00;;;22.60;99.90;;;;;;4995403;28;20057;-76
2022/07/22 08:37:40;;;;;;;13.07;8.25;;;22.70;99.90;;;;;;5011884;28;20026;-77
2022/07/22 08:40:06;;;;;;;8.88;7.72;;;22.80;99.90;;;;;;5012026;28;20045;-77
2022/07/22 08:42:32;;;;;;;10.73;7.57;;;22.90;99.90;;;;;;4995644;28;20451;-77
2022/07/22 08:44:58;;;;;;;10.48;7.40;;;23.00;99.90;;;;;;4993245;28;20034;-77
2022/07/22 08:47:23;;;;;;;14.30;7.88;;;23.00;99.90;;;;;;4978320;28;20119;-77
2022/07/22 08:49:49;;;;;;;11.50;8.73;;;23.10;99.90;;;;;;5007992;28;20058;-77
2022/07/22 08:52:15;;;;;;;9.60;8.18;;;23.20;99.90;;;;;;5009240;28;20621;-77
2022/07/22 08:54:40;;;;;;;10.30;8.25;;;23.20;99.90;;;;;;5006644;28;20037;-77
2022/07/22 08:57:06;;;;;;;12.00;8.15;;;23.30;99.90;;;;;;5011338;28;20405;-77
2022/07/22 08:59:32;;;;;;;14.15;7.78;;;23.30;99.90;;;;;;4991705;28;20041;-77
2022/07/22 09:02:05;;;;;;;9.90;7.72;;;23.50;99.90;;;;;;5025528;28;20133;-77
2022/07/22 09:04:31;;;;;;;13.05;6.80;;;23.50;99.90;;;;;;5008178;28;20026;-77
2022/07/22 09:06:57;;;;;;;9.90;6.03;;;23.60;99.90;;;;;;4993458;28;20375;-77
2022/07/22 09:09:32;;;;;;;8.18;6.00;;;23.60;99.90;;;;;;4975957;28;20033;-77
2022/07/22 09:12:07;;;;;;;7.32;5.30;;;23.50;99.90;;;;;;5009681;28;20180;-77
2022/07/22 09:14:49;;;;;;;8.77;5.13;;;23.60;99.90;;;;;;5011185;28;20276;-77
2022/07/22 09:17:35;;;;;;;11.90;6.00;;;23.80;99.90;;;;;;4990093;28;20134;-77
2022/07/22 09:20:04;;;;;;;14.95;7.53;;;23.80;99.90;;;;;;4997774;28;20030;-78
2022/07/22 09:22:35;;;;;;;11.75;8.05;;;23.90;99.90;;;;;;5025108;28;20108;-79
2022/07/22 09:25:29;;;;;;;12.55;7.43;;;23.90;99.90;;;;;;5006962;28;20536;-77
2022/07/22 09:28:06;;;;;;;10.50;7.97;;;23.90;99.90;;;;;;5006209;28;20026;-79
2022/07/22 09:30:34;;;;;;;11.15;6.32;;;23.90;99.90;;;;;;5006001;28;20030;-79
2022/07/22 09:33:00;;;;;;;10.93;6.30;;;24.00;99.90;;;;;;5008787;28;20041;-79
2022/07/22 09:35:25;;;;;;;14.50;7.40;;;24.10;99.90;;;;;;4991633;28;20029;-79
2022/07/22 09:38:02;;;;;;;13.65;8.63;;;24.20;99.90;;;;;;4992777;28;20033;-79
2022/07/22 09:40:29;;;;;;;21.83;12.50;;;24.30;99.90;;;;;;5013740;28;20049;-79
2022/07/22 09:42:56;;;;;;;21.75;12.30;;;24.40;99.90;;;;;;4992508;28;20026;-79
2022/07/22 09:45:24;;;;;;;27.13;16.05;;;24.40;99.90;;;;;;4978490;28;20148;-79
2022/07/22 09:47:49;;;;;;;26.42;15.60;;;24.50;99.90;;;;;;4973468;28;20249;-79
2022/07/22 09:50:15;;;;;;;28.17;16.90;;;24.50;99.90;;;;;;4980030;28;20466;-79
2022/07/22 09:52:42;;;;;;;27.58;15.98;;;24.60;99.70;;;;;;5025100;28;20500;-79
2022/07/22 09:55:08;;;;;;;26.55;16.33;;;24.70;99.50;;;;;;4988863;28;20037;-79
2022/07/22 09:57:33;;;;;;;27.77;16.05;;;24.90;99.40;;;;;;4994070;28;20025;-79
2022/07/22 09:59:59;;;;;;;26.42;16.58;;;24.80;98.40;;;;;;5012825;28;20080;-79
2022/07/22 10:02:25;;;;;;;26.45;15.00;;;24.90;99.40;;;;;;4996831;28;20554;-79
2022/07/22 10:04:52;;;;;;;30.38;18.30;;;24.90;98.10;;;;;;4996104;28;20030;-79
2022/07/22 10:07:18;;;;;;;25.08;15.50;;;24.90;98.20;;;;;;5006793;28;20038;-79
2022/07/22 10:09:44;;;;;;;27.90;15.43;;;25.00;97.00;;;;;;4973621;28;20382;-79
2022/07/22 10:12:09;;;;;;;26.67;15.20;;;25.00;97.20;;;;;;4994014;28;20033;-79
2022/07/22 10:14:35;;;;;;;24.85;14.40;;;25.00;97.50;;;;;;4992751;28;20898;-79
2022/07/22 10:17:00;;;;;;;25.75;15.30;;;25.10;97.30;;;;;;4987561;28;20026;-78
2022/07/22 10:19:26;;;;;;;26.17;15.68;;;25.10;96.60;;;;;;4992896;28;20030;-78
2022/07/22 10:21:52;;;;;;;20.90;12.00;;;25.20;97.50;;;;;;4993723;28;20428;-78
2022/07/22 10:24:17;;;;;;;23.25;14.52;;;25.20;97.50;;;;;;5014238;28;20672;-78
2022/07/22 10:26:51;;;;;;;21.25;13.55;;;25.30;97.00;;;;;;4995177;28;20025;-78
2022/07/22 10:29:47;;;;;;;19.38;13.00;;;25.40;96.70;;;;;;4992389;28;20465;-76
2022/07/22 10:32:21;;;;;;;21.90;12.98;;;25.40;96.60;;;;;;5004483;28;20030;-77
2022/07/22 10:34:59;;;;;;;24.88;13.93;;;25.40;96.50;;;;;;5006800;28;20129;-76
2022/07/22 10:37:51;;;;;;;24.77;15.52;;;25.60;97.50;;;;;;5007223;28;20044;-77
2022/07/22 10:40:21;;;;;;;22.98;14.10;;;25.80;96.50;;;;;;5007402;28;20041;-78
2022/07/22 10:43:06;;;;;;;21.15;14.50;;;25.90;96.10;;;;;;4972856;28;20045;-76
2022/07/22 10:45:37;;;;;;;28.80;14.27;;;26.00;95.90;;;;;;5006260;28;20034;-77
2022/07/22 10:48:05;;;;;;;25.63;15.55;;;26.10;94.90;;;;;;5008939;28;20331;-76
2022/07/22 10:50:39;;;;;;;22.42;13.70;;;26.20;94.60;;;;;;4989824;28;20083;-77
2022/07/22 10:53:13;;;;;;;20.50;12.90;;;26.30;94.90;;;;;;5009574;28;20113;-77
2022/07/22 10:55:59;;;;;;;21.88;13.88;;;26.30;93.50;;;;;;4992322;28;20110;-77
2022/07/22 10:58:34;;;;;;;22.05;12.77;;;26.40;93.70;;;;;;4982454;28;20083;-77
2022/07/22 11:01:04;;;;;;;17.58;12.07;;;26.40;94.80;;;;;;5024151;28;20041;-76
2022/07/22 11:03:30;;;;;;;20.35;11.88;;;26.40;94.20;;;;;;5008608;28;20389;-77
2022/07/22 11:05:59;;;;;;;19.55;12.25;;;26.40;94.70;;;;;;4970063;28;20030;-77
2022/07/22 11:08:25;;;;;;;18.92;12.98;;;26.50;93.40;;;;;;5008748;28;20025;-77
2022/07/22 11:10:50;;;;;;;23.50;13.45;;;26.70;95.50;;;;;;4971827;28;20088;-78
2022/07/22 11:13:35;;;;;;;20.85;13.43;;;27.00;94.20;;;;;;5006686;28;20057;-78
2022/07/22 11:16:21;;;;;;;20.98;13.45;;;27.20;94.60;;;;;;4987152;28;20050;-78
2022/07/22 11:18:55;;;;;;;25.42;12.95;;;27.40;93.00;;;;;;4977871;28;20040;-78
2022/07/22 11:21:22;;;;;;;20.50;12.35;;;27.70;93.10;;;;;;4969930;28;20572;-78
2022/07/22 11:23:49;;;;;;;20.67;12.65;;;28.00;91.30;;;;;;4993243;28;20117;-79
2022/07/22 11:26:16;;;;;;;21.10;12.85;;;28.10;91.30;;;;;;5007976;28;20033;-79
2022/07/22 11:28:42;;;;;;;21.70;12.73;;;28.30;91.50;;;;;;5009656;28;20034;-79
2022/07/22 11:31:08;;;;;;;20.58;12.63;;;28.40;90.30;;;;;;4991362;28;20460;-79
2022/07/22 11:33:34;;;;;;;20.77;13.68;;;28.50;91.50;;;;;;4972223;28;20389;-79
2022/07/22 11:36:04;;;;;;;26.27;15.02;;;28.80;91.30;;;;;;4993172;28;20030;-79
2022/07/22 11:38:48;;;;;;;19.98;14.13;;;29.00;90.00;;;;;;4987192;28;20988;-78
2022/07/22 11:41:17;;;;;;;20.17;12.88;;;29.20;86.20;;;;;;5007098;28;20037;-78
2022/07/22 11:43:45;;;;;;;24.70;14.95;;;29.60;87.10;;;;;;4986277;28;20037;-78
2022/07/22 11:46:10;;;;;;;20.98;13.55;;;30.10;86.90;;;;;;4984212;28;20405;-79
2022/07/22 11:48:37;;;;;;;23.98;15.18;;;30.60;84.20;;;;;;4992123;28;20278;-79
2022/07/22 11:51:03;;;;;;;22.85;15.43;;;30.30;84.30;;;;;;4995454;28;20022;-79
2022/07/22 11:53:29;;;;;;;20.92;14.18;;;30.40;86.00;;;;;;4988338;28;20049;-79
2022/07/22 11:56:01;;;;;;;20.38;14.18;;;30.70;81.60;;;;;;4990484;28;20034;-79
2022/07/22 11:58:38;;;;;;;24.80;15.20;;;30.70;82.20;;;;;;4992117;28;20029;-79
2022/07/22 12:01:06;;;;;;;21.38;15.52;;;30.90;81.00;;;;;;5008318;28;20029;-79
2022/07/22 12:03:32;;;;;;;24.30;15.18;;;31.50;80.30;;;;;;4979294;28;20037;-79
2022/07/22 12:05:57;;;;;;;22.67;15.63;;;31.50;76.10;;;;;;4993377;28;20026;-79
2022/07/22 12:08:23;;;;;;;24.63;16.05;;;31.70;78.80;;;;;;5010769;28;20022;-80
2022/07/22 12:10:49;;;;;;;22.25;14.85;;;31.80;73.40;;;;;;4995435;28;20129;-80
2022/07/22 12:13:14;;;;;;;24.33;15.35;;;31.90;75.50;;;;;;5009405;28;20505;-80
2022/07/22 12:15:41;;;;;;;23.52;16.20;;;31.90;72.90;;;;;;5009181;28;20104;-80
2022/07/22 12:18:19;;;;;;;23.65;16.58;;;32.10;73.70;;;;;;5007400;28;20048;-80
2022/07/22 12:20:45;;;;;;;21.67;15.55;;;31.90;70.30;;;;;;4969673;28;20100;-80
2022/07/22 12:23:12;;;;;;;23.77;16.15;;;31.90;70.00;;;;;;4992097;28;20435;-80
2022/07/22 12:25:57;;;;;;;22.20;15.73;;;32.00;72.60;;;;;;5011178;28;20117;-80
2022/07/22 12:28:23;;;;;;;21.05;14.77;;;31.90;70.80;;;;;;5011683;28;20061;-80
2022/07/22 12:30:50;;;;;;;26.25;17.77;;;31.70;69.10;;;;;;4995668;28;20405;-80
2022/07/22 12:33:16;;;;;;;22.65;15.88;;;31.70;71.10;;;;;;4993564;28;20033;-80
2022/07/22 12:35:42;;;;;;;24.48;16.73;;;31.80;67.90;;;;;;4980286;28;20037;-80
2022/07/22 12:38:08;;;;;;;20.85;15.10;;;31.80;67.40;;;;;;4980512;28;20037;-80
2022/07/22 12:40:34;;;;;;;23.05;15.32;;;32.00;69.30;;;;;;5014692;28;20029;-80